N28LOP FAPE-FXNH
Flight info
| Callsign | N28LOP |
|---|---|
| Flight time | N/A |
| Altitude | 8500 |
| Route | ITKIT UZ5 IXAKU/N0177F090 DCT 302038S0274231E |
| Aircraft | C208/L-SDFGR/C |
Departure
| Time | 2026-04-14 00:29 |
|---|---|
| Airport | Chief Dawid Stuurman International Airport (FAPE) |
Arrival
| Time | N/A |
|---|---|
| Airport | Nohanas Airport (FXNH) |
| Time | Latitude | Longitude | Altitude | Speed | Heading |
|---|---|---|---|---|---|
| 2026-04-14 00:16 | -33.98565 | 25.60995 | 211 ft | 0 kts | 328° |
| 2026-04-14 00:23 | -33.98564 | 25.60993 | 210 ft | 2 kts | 301° |
| 2026-04-14 00:23 | -33.98572 | 25.60996 | 210 ft | 2 kts | 117° |
| 2026-04-14 00:23 | -33.98580 | 25.61005 | 217 ft | 3 kts | 144° |
| 2026-04-14 00:24 | -33.98584 | 25.61008 | 214 ft | 0 kts | 148° |
| 2026-04-14 00:24 | -33.98601 | 25.61020 | 213 ft | 9 kts | 155° |
| 2026-04-14 00:25 | -33.98633 | 25.61007 | 211 ft | 5 kts | 230° |
| 2026-04-14 00:25 | -33.98671 | 25.60932 | 212 ft | 15 kts | 237° |
| 2026-04-14 00:25 | -33.98713 | 25.60854 | 214 ft | 13 kts | 236° |
| 2026-04-14 00:25 | -33.98784 | 25.60723 | 210 ft | 23 kts | 236° |
| 2026-04-14 00:26 | -33.98846 | 25.60610 | 213 ft | 10 kts | 234° |
| 2026-04-14 00:26 | -33.98898 | 25.60512 | 215 ft | 20 kts | 238° |
| 2026-04-14 00:26 | -33.98993 | 25.60339 | 210 ft | 29 kts | 236° |
| 2026-04-14 00:26 | -33.99094 | 25.60153 | 210 ft | 26 kts | 238° |
| 2026-04-14 00:27 | -33.99161 | 25.60030 | 213 ft | 10 kts | 236° |
| 2026-04-14 00:27 | -33.99207 | 25.59949 | 212 ft | 17 kts | 226° |
| 2026-04-14 00:27 | -33.99309 | 25.59959 | 211 ft | 18 kts | 146° |
| 2026-04-14 00:27 | -33.99347 | 25.60076 | 210 ft | 23 kts | 58° |
| 2026-04-14 00:28 | -33.99304 | 25.60162 | 210 ft | 7 kts | 59° |
| 2026-04-14 00:28 | -33.99228 | 25.60307 | 211 ft | 46 kts | 58° |
| 2026-04-14 00:28 | -33.98952 | 25.60840 | 210 ft | 100 kts | 58° |
| 2026-04-14 00:28 | -33.98506 | 25.61662 | 281 ft | 131 kts | 54° |
| 2026-04-14 00:29 | -33.97879 | 25.62424 | 677 ft | 131 kts | 26° |
| 2026-04-14 00:29 | -33.97050 | 25.62979 | 959 ft | 141 kts | 26° |
| 2026-04-14 00:29 | -33.96176 | 25.63564 | 1284 ft | 147 kts | 28° |
| 2026-04-14 00:29 | -33.95304 | 25.64251 | 1588 ft | 155 kts | 33° |
| 2026-04-14 00:30 | -33.94413 | 25.65027 | 1886 ft | 160 kts | 35° |
| 2026-04-14 00:30 | -33.93511 | 25.65830 | 2184 ft | 162 kts | 35° |
| 2026-04-14 00:30 | -33.92602 | 25.66638 | 2483 ft | 163 kts | 35° |
| 2026-04-14 00:30 | -33.91685 | 25.67452 | 2782 ft | 164 kts | 35° |
| 2026-04-14 00:31 | -33.90773 | 25.68260 | 3127 ft | 161 kts | 35° |
| 2026-04-14 00:31 | -33.89870 | 25.69057 | 3442 ft | 161 kts | 35° |
| 2026-04-14 00:31 | -33.88962 | 25.69862 | 3737 ft | 162 kts | 35° |
| 2026-04-14 00:31 | -33.88051 | 25.70669 | 4032 ft | 163 kts | 35° |
| 2026-04-14 00:32 | -33.86229 | 25.72282 | 4635 ft | 162 kts | 34° |
| 2026-04-14 00:32 | -33.85333 | 25.73074 | 4930 ft | 162 kts | 34° |
| 2026-04-14 00:32 | -33.84428 | 25.73874 | 5224 ft | 161 kts | 34° |
| 2026-04-14 00:33 | -33.83525 | 25.74673 | 5520 ft | 161 kts | 34° |
| 2026-04-14 00:33 | -33.82624 | 25.75468 | 5819 ft | 160 kts | 34° |
| 2026-04-14 00:33 | -33.81738 | 25.76251 | 6115 ft | 157 kts | 34° |
| 2026-04-14 00:33 | -33.80865 | 25.77020 | 6408 ft | 155 kts | 34° |
| 2026-04-14 00:34 | -33.79999 | 25.77785 | 6704 ft | 155 kts | 34° |
| 2026-04-14 00:34 | -33.79129 | 25.78554 | 6989 ft | 154 kts | 34° |
| 2026-04-14 00:34 | -33.78271 | 25.79312 | 7275 ft | 152 kts | 34° |
| 2026-04-14 00:34 | -33.77424 | 25.80058 | 7551 ft | 151 kts | 34° |
| 2026-04-14 00:35 | -33.76560 | 25.80818 | 7743 ft | 156 kts | 34° |
| 2026-04-14 00:35 | -33.75678 | 25.81598 | 7939 ft | 159 kts | 35° |
| 2026-04-14 00:35 | -33.74781 | 25.82389 | 8138 ft | 161 kts | 35° |
| 2026-04-14 00:35 | -33.73888 | 25.83177 | 8332 ft | 162 kts | 35° |
| 2026-04-14 00:36 | -33.72963 | 25.83992 | 8534 ft | 163 kts | 35° |
| 2026-04-14 00:36 | -33.72047 | 25.84799 | 8734 ft | 164 kts | 35° |
| 2026-04-14 00:36 | -33.71137 | 25.85601 | 8932 ft | 164 kts | 35° |
| 2026-04-14 00:36 | -33.70213 | 25.86414 | 9136 ft | 165 kts | 35° |
| 2026-04-14 00:37 | -33.69290 | 25.87227 | 9336 ft | 165 kts | 35° |
| 2026-04-14 00:37 | -33.68360 | 25.88045 | 9542 ft | 165 kts | 35° |
| 2026-04-14 00:37 | -33.67434 | 25.88860 | 9749 ft | 165 kts | 35° |
| 2026-04-14 00:37 | -33.66507 | 25.89676 | 9963 ft | 165 kts | 35° |
| 2026-04-14 00:38 | -33.65641 | 25.90437 | 10138 ft | 165 kts | 36° |
| 2026-04-14 00:38 | -33.64713 | 25.91254 | 10323 ft | 166 kts | 36° |
| 2026-04-14 00:38 | -33.63781 | 25.92073 | 10510 ft | 166 kts | 36° |
| 2026-04-14 00:38 | -33.62850 | 25.92892 | 10699 ft | 166 kts | 37° |
| 2026-04-14 00:39 | -33.61929 | 25.93700 | 10886 ft | 166 kts | 36° |
| 2026-04-14 00:39 | -33.60981 | 25.94531 | 10983 ft | 173 kts | 37° |
| 2026-04-14 00:39 | -33.59992 | 25.95403 | 11001 ft | 180 kts | 37° |
| 2026-04-14 00:39 | -33.58965 | 25.96310 | 11009 ft | 185 kts | 37° |
| 2026-04-14 00:40 | -33.57916 | 25.97233 | 11015 ft | 189 kts | 37° |
| 2026-04-14 00:40 | -33.57009 | 25.98027 | 11016 ft | 190 kts | 36° |
| 2026-04-14 00:40 | -33.55931 | 25.98962 | 11018 ft | 192 kts | 36° |
| 2026-04-14 00:40 | -33.54846 | 25.99900 | 11018 ft | 192 kts | 36° |
| 2026-04-14 00:41 | -33.53757 | 26.00844 | 11017 ft | 193 kts | 36° |
| 2026-04-14 00:41 | -33.52682 | 26.01778 | 11020 ft | 193 kts | 36° |
| 2026-04-14 00:41 | -33.51596 | 26.02725 | 11021 ft | 193 kts | 36° |
| 2026-04-14 00:41 | -33.50507 | 26.03675 | 11021 ft | 193 kts | 36° |
| 2026-04-14 00:42 | -33.49420 | 26.04625 | 11021 ft | 193 kts | 37° |
| 2026-04-14 00:42 | -33.48332 | 26.05576 | 11021 ft | 193 kts | 37° |
| 2026-04-14 00:42 | -33.47245 | 26.06525 | 11022 ft | 193 kts | 37° |
| 2026-04-14 00:42 | -33.46155 | 26.07476 | 11021 ft | 194 kts | 36° |
| 2026-04-14 00:43 | -33.45064 | 26.08428 | 11022 ft | 194 kts | 37° |
| 2026-04-14 00:43 | -33.43976 | 26.09378 | 11023 ft | 193 kts | 36° |
| 2026-04-14 00:43 | -33.42886 | 26.10326 | 11023 ft | 193 kts | 36° |
| 2026-04-14 00:43 | -33.41797 | 26.11273 | 11025 ft | 193 kts | 37° |
| 2026-04-14 00:44 | -33.40708 | 26.12223 | 11023 ft | 193 kts | 37° |
| 2026-04-14 00:44 | -33.39621 | 26.13171 | 11022 ft | 193 kts | 37° |
| 2026-04-14 00:44 | -33.38532 | 26.14120 | 11030 ft | 193 kts | 37° |
| 2026-04-14 00:44 | -33.37446 | 26.15067 | 11030 ft | 193 kts | 37° |
| 2026-04-14 00:45 | -33.36365 | 26.15996 | 11029 ft | 194 kts | 34° |
| 2026-04-14 00:45 | -33.35164 | 26.16720 | 11026 ft | 194 kts | 22° |
| 2026-04-14 00:45 | -33.33896 | 26.17283 | 11027 ft | 193 kts | 20° |
| 2026-04-14 00:45 | -33.32626 | 26.17805 | 11026 ft | 193 kts | 19° |
| 2026-04-14 00:46 | -33.31355 | 26.18319 | 11030 ft | 192 kts | 19° |
| 2026-04-14 00:46 | -33.30088 | 26.18835 | 11030 ft | 192 kts | 19° |
| 2026-04-14 00:46 | -33.28824 | 26.19354 | 11032 ft | 192 kts | 20° |
| 2026-04-14 00:46 | -33.27557 | 26.19879 | 11030 ft | 192 kts | 20° |
| 2026-04-14 00:47 | -33.26297 | 26.20403 | 11032 ft | 192 kts | 20° |
| 2026-04-14 00:47 | -33.25054 | 26.20922 | 11032 ft | 191 kts | 20° |
| 2026-04-14 00:47 | -33.23798 | 26.21447 | 11031 ft | 191 kts | 20° |
| 2026-04-14 00:47 | -33.22540 | 26.21974 | 11031 ft | 191 kts | 20° |
| 2026-04-14 00:48 | -33.21266 | 26.22508 | 11030 ft | 192 kts | 20° |
| 2026-04-14 00:48 | -33.20023 | 26.23028 | 11030 ft | 191 kts | 20° |
| 2026-04-14 00:48 | -33.18764 | 26.23555 | 11030 ft | 192 kts | 20° |
| 2026-04-14 00:48 | -33.17506 | 26.24082 | 11031 ft | 192 kts | 20° |
| 2026-04-14 00:49 | -33.16245 | 26.24610 | 11030 ft | 192 kts | 20° |
| 2026-04-14 00:49 | -33.14985 | 26.25136 | 11031 ft | 192 kts | 20° |
| 2026-04-14 00:49 | -33.13723 | 26.25664 | 11036 ft | 192 kts | 20° |
| 2026-04-14 00:49 | -33.12459 | 26.26192 | 11033 ft | 192 kts | 20° |
| 2026-04-14 00:50 | -33.11200 | 26.26717 | 11031 ft | 192 kts | 20° |
| 2026-04-14 00:50 | -33.09942 | 26.27243 | 11032 ft | 192 kts | 20° |
| 2026-04-14 00:50 | -33.08683 | 26.27769 | 11032 ft | 192 kts | 20° |
| 2026-04-14 00:50 | -33.07425 | 26.28293 | 11032 ft | 191 kts | 20° |
| 2026-04-14 00:51 | -33.06173 | 26.28815 | 11034 ft | 191 kts | 20° |
| 2026-04-14 00:51 | -33.04920 | 26.29338 | 11035 ft | 190 kts | 20° |
| 2026-04-14 00:51 | -33.03668 | 26.29860 | 11036 ft | 190 kts | 20° |
| 2026-04-14 00:51 | -33.02418 | 26.30381 | 11033 ft | 190 kts | 20° |
| 2026-04-14 00:52 | -33.01170 | 26.30902 | 11034 ft | 190 kts | 20° |
| 2026-04-14 00:52 | -32.99922 | 26.31422 | 11036 ft | 190 kts | 20° |
| 2026-04-14 00:52 | -32.98673 | 26.31943 | 11037 ft | 190 kts | 20° |
| 2026-04-14 00:52 | -32.97422 | 26.32464 | 11036 ft | 190 kts | 20° |
| 2026-04-14 00:53 | -32.96173 | 26.32984 | 11036 ft | 190 kts | 20° |
| 2026-04-14 00:53 | -32.94925 | 26.33503 | 11034 ft | 190 kts | 20° |
| 2026-04-14 00:53 | -32.93675 | 26.34024 | 11032 ft | 190 kts | 20° |
| 2026-04-14 00:53 | -32.92427 | 26.34543 | 11039 ft | 190 kts | 20° |
| 2026-04-14 00:54 | -32.91175 | 26.35064 | 11038 ft | 190 kts | 20° |
| 2026-04-14 00:54 | -32.89925 | 26.35583 | 11038 ft | 190 kts | 20° |
| 2026-04-14 00:54 | -32.88675 | 26.36103 | 11038 ft | 190 kts | 20° |
| 2026-04-14 00:54 | -32.87424 | 26.36622 | 11039 ft | 190 kts | 20° |
| 2026-04-14 00:55 | -32.86187 | 26.37135 | 11036 ft | 190 kts | 20° |
| 2026-04-14 00:55 | -32.84939 | 26.37655 | 11039 ft | 190 kts | 20° |
| 2026-04-14 00:55 | -32.83687 | 26.38174 | 11042 ft | 190 kts | 20° |
| 2026-04-14 00:55 | -32.82436 | 26.38693 | 11039 ft | 190 kts | 20° |
| 2026-04-14 00:56 | -32.81188 | 26.39210 | 11039 ft | 190 kts | 20° |
| 2026-04-14 00:56 | -32.79939 | 26.39728 | 11039 ft | 190 kts | 20° |
| 2026-04-14 00:56 | -32.78692 | 26.40245 | 11045 ft | 190 kts | 20° |
| 2026-04-14 00:56 | -32.77445 | 26.40763 | 11044 ft | 190 kts | 20° |
| 2026-04-14 00:57 | -32.76199 | 26.41279 | 11044 ft | 190 kts | 20° |
| 2026-04-14 00:57 | -32.74952 | 26.41796 | 11043 ft | 190 kts | 20° |
| 2026-04-14 00:57 | -32.73769 | 26.42287 | 11044 ft | 189 kts | 20° |
| 2026-04-14 00:57 | -32.72525 | 26.42803 | 11043 ft | 189 kts | 20° |
| 2026-04-14 00:58 | -32.71284 | 26.43317 | 11045 ft | 189 kts | 20° |
| 2026-04-14 00:58 | -32.70461 | 26.43658 | 11048 ft | 189 kts | 20° |
| 2026-04-14 00:58 | -32.69221 | 26.44171 | 11051 ft | 189 kts | 20° |
| 2026-04-14 00:58 | -32.67980 | 26.44685 | 11049 ft | 189 kts | 20° |
| 2026-04-14 00:59 | -32.66736 | 26.45200 | 11051 ft | 189 kts | 20° |
| 2026-04-14 00:59 | -32.65492 | 26.45714 | 11054 ft | 190 kts | 20° |
| 2026-04-14 00:59 | -32.64247 | 26.46228 | 11047 ft | 189 kts | 20° |
| 2026-04-14 00:59 | -32.63002 | 26.46743 | 11048 ft | 189 kts | 20° |
| 2026-04-14 01:00 | -32.61755 | 26.47258 | 11050 ft | 189 kts | 20° |
| 2026-04-14 01:00 | -32.60506 | 26.47773 | 11056 ft | 189 kts | 20° |
| 2026-04-14 01:00 | -32.59276 | 26.48280 | 11052 ft | 189 kts | 20° |
| 2026-04-14 01:00 | -32.58033 | 26.48794 | 11053 ft | 189 kts | 20° |
| 2026-04-14 01:01 | -32.56790 | 26.49309 | 11053 ft | 189 kts | 20° |
| 2026-04-14 01:01 | -32.55545 | 26.49823 | 11055 ft | 189 kts | 20° |
| 2026-04-14 01:01 | -32.54305 | 26.50334 | 11061 ft | 189 kts | 20° |
| 2026-04-14 01:01 | -32.53062 | 26.50847 | 11063 ft | 189 kts | 20° |
| 2026-04-14 01:02 | -32.51820 | 26.51357 | 11064 ft | 189 kts | 20° |
| 2026-04-14 01:02 | -32.50575 | 26.51870 | 11058 ft | 189 kts | 20° |
| 2026-04-14 01:02 | -32.49329 | 26.52383 | 11066 ft | 189 kts | 20° |
| 2026-04-14 01:02 | -32.48086 | 26.52895 | 11065 ft | 189 kts | 20° |
| 2026-04-14 01:03 | -32.46845 | 26.53407 | 11065 ft | 189 kts | 20° |
| 2026-04-14 01:03 | -32.45604 | 26.53918 | 11060 ft | 188 kts | 20° |
| 2026-04-14 01:03 | -32.44383 | 26.54421 | 11062 ft | 188 kts | 20° |
| 2026-04-14 01:03 | -32.43149 | 26.54929 | 11066 ft | 188 kts | 20° |
| 2026-04-14 01:04 | -32.41910 | 26.55439 | 11073 ft | 189 kts | 20° |
| 2026-04-14 01:04 | -32.40671 | 26.55950 | 11064 ft | 189 kts | 20° |
| 2026-04-14 01:04 | -32.39431 | 26.56461 | 11066 ft | 188 kts | 20° |
| 2026-04-14 01:04 | -32.38195 | 26.56969 | 11070 ft | 188 kts | 19° |
| 2026-04-14 01:05 | -32.36963 | 26.57475 | 11065 ft | 187 kts | 20° |
| 2026-04-14 01:05 | -32.35735 | 26.57981 | 11069 ft | 187 kts | 20° |
| 2026-04-14 01:05 | -32.34506 | 26.58484 | 11069 ft | 187 kts | 20° |
| 2026-04-14 01:05 | -32.33281 | 26.58985 | 11076 ft | 187 kts | 20° |
| 2026-04-14 01:06 | -32.32048 | 26.59489 | 11073 ft | 187 kts | 20° |
| 2026-04-14 01:06 | -32.30817 | 26.59990 | 11067 ft | 187 kts | 19° |
| 2026-04-14 01:06 | -32.29584 | 26.60496 | 11075 ft | 187 kts | 19° |
| 2026-04-14 01:06 | -32.28350 | 26.61003 | 11078 ft | 188 kts | 19° |
| 2026-04-14 01:07 | -32.27114 | 26.61513 | 11075 ft | 189 kts | 19° |
| 2026-04-14 01:07 | -32.25870 | 26.62023 | 11077 ft | 189 kts | 19° |
| 2026-04-14 01:07 | -32.24639 | 26.62528 | 11072 ft | 189 kts | 19° |
| 2026-04-14 01:07 | -32.23396 | 26.63036 | 11072 ft | 189 kts | 19° |
| 2026-04-14 01:08 | -32.22153 | 26.63545 | 11079 ft | 189 kts | 19° |
| 2026-04-14 01:08 | -32.20908 | 26.64055 | 11074 ft | 189 kts | 19° |
| 2026-04-14 01:08 | -32.19666 | 26.64565 | 11072 ft | 189 kts | 19° |
| 2026-04-14 01:08 | -32.18424 | 26.65074 | 11079 ft | 189 kts | 19° |
| 2026-04-14 01:09 | -32.17182 | 26.65584 | 11076 ft | 189 kts | 19° |
| 2026-04-14 01:09 | -32.15939 | 26.66093 | 11077 ft | 189 kts | 19° |
| 2026-04-14 01:09 | -32.14700 | 26.66600 | 11078 ft | 189 kts | 19° |
| 2026-04-14 01:09 | -32.13461 | 26.67107 | 11078 ft | 188 kts | 19° |
| 2026-04-14 01:10 | -32.12223 | 26.67613 | 11078 ft | 188 kts | 19° |
| 2026-04-14 01:10 | -32.10979 | 26.68122 | 11079 ft | 188 kts | 19° |
| 2026-04-14 01:10 | -32.09747 | 26.68625 | 11080 ft | 188 kts | 19° |
| 2026-04-14 01:10 | -32.08507 | 26.69132 | 11081 ft | 188 kts | 19° |
| 2026-04-14 01:11 | -32.07269 | 26.69638 | 11082 ft | 188 kts | 19° |
| 2026-04-14 01:11 | -32.06045 | 26.70137 | 11079 ft | 189 kts | 19° |
| 2026-04-14 01:11 | -32.04805 | 26.70642 | 11081 ft | 189 kts | 19° |
| 2026-04-14 01:11 | -32.03564 | 26.71148 | 11077 ft | 189 kts | 19° |
| 2026-04-14 01:12 | -32.02324 | 26.71653 | 11072 ft | 189 kts | 19° |
| 2026-04-14 01:12 | -32.01083 | 26.72157 | 11073 ft | 189 kts | 19° |
| 2026-04-14 01:12 | -31.99843 | 26.72661 | 11073 ft | 189 kts | 19° |
| 2026-04-14 01:12 | -31.98600 | 26.73168 | 11073 ft | 189 kts | 19° |
| 2026-04-14 01:13 | -31.97360 | 26.73675 | 11074 ft | 188 kts | 19° |
| 2026-04-14 01:13 | -31.96122 | 26.74181 | 11084 ft | 189 kts | 19° |
| 2026-04-14 01:13 | -31.94878 | 26.74688 | 11081 ft | 189 kts | 19° |
| 2026-04-14 01:13 | -31.93633 | 26.75195 | 11076 ft | 189 kts | 19° |
| 2026-04-14 01:14 | -31.92387 | 26.75701 | 11077 ft | 189 kts | 19° |
| 2026-04-14 01:14 | -31.91143 | 26.76207 | 11079 ft | 189 kts | 19° |
| 2026-04-14 01:14 | -31.89895 | 26.76715 | 11076 ft | 192 kts | 19° |
| 2026-04-14 01:14 | -31.88621 | 26.77230 | 11080 ft | 195 kts | 19° |
| 2026-04-14 01:15 | -31.87330 | 26.77750 | 11081 ft | 197 kts | 19° |
| 2026-04-14 01:15 | -31.86025 | 26.78273 | 11081 ft | 198 kts | 18° |
| 2026-04-14 01:15 | -31.84720 | 26.78796 | 11080 ft | 199 kts | 18° |
| 2026-04-14 01:15 | -31.83410 | 26.79322 | 11076 ft | 199 kts | 19° |
| 2026-04-14 01:16 | -31.82100 | 26.79852 | 11077 ft | 199 kts | 19° |
| 2026-04-14 01:16 | -31.80804 | 26.80376 | 11075 ft | 199 kts | 19° |
| 2026-04-14 01:16 | -31.79491 | 26.80908 | 11075 ft | 199 kts | 19° |
| 2026-04-14 01:16 | -31.78181 | 26.81437 | 11077 ft | 199 kts | 18° |
| 2026-04-14 01:18 | -31.69008 | 26.85143 | 11081 ft | 199 kts | 18° |
| 2026-04-14 01:18 | -31.67697 | 26.85673 | 11080 ft | 199 kts | 18° |
| 2026-04-14 01:19 | -31.66383 | 26.86201 | 11084 ft | 199 kts | 18° |
| 2026-04-14 01:19 | -31.65071 | 26.86729 | 11082 ft | 199 kts | 18° |
| 2026-04-14 01:19 | -31.63759 | 26.87258 | 11082 ft | 199 kts | 18° |
| 2026-04-14 01:19 | -31.62448 | 26.87786 | 11085 ft | 199 kts | 18° |
| 2026-04-14 01:20 | -31.61137 | 26.88314 | 11081 ft | 199 kts | 18° |
| 2026-04-14 01:20 | -31.59844 | 26.88837 | 11078 ft | 199 kts | 18° |
| 2026-04-14 01:20 | -31.58521 | 26.89370 | 11082 ft | 198 kts | 18° |
| 2026-04-14 01:20 | -31.57218 | 26.89896 | 11087 ft | 198 kts | 18° |
| 2026-04-14 01:21 | -31.55912 | 26.90423 | 11090 ft | 199 kts | 18° |
| 2026-04-14 01:21 | -31.54606 | 26.90950 | 11084 ft | 199 kts | 18° |
| 2026-04-14 01:21 | -31.53297 | 26.91476 | 11079 ft | 198 kts | 18° |
| 2026-04-14 01:21 | -31.52005 | 26.91996 | 11092 ft | 199 kts | 18° |
| 2026-04-14 01:22 | -31.50697 | 26.92523 | 11091 ft | 199 kts | 18° |
| 2026-04-14 01:22 | -31.49388 | 26.93049 | 11092 ft | 199 kts | 18° |
| 2026-04-14 01:22 | -31.48078 | 26.93575 | 11086 ft | 199 kts | 18° |
| 2026-04-14 01:22 | -31.46773 | 26.94100 | 11069 ft | 199 kts | 17° |
| 2026-04-14 01:23 | -31.45428 | 26.94631 | 10828 ft | 204 kts | 17° |
| 2026-04-14 01:23 | -31.44110 | 26.95160 | 10578 ft | 197 kts | 18° |
| 2026-04-14 01:23 | -31.42820 | 26.95685 | 10350 ft | 194 kts | 18° |
| 2026-04-14 01:23 | -31.41548 | 26.96204 | 10123 ft | 193 kts | 18° |
| 2026-04-14 01:24 | -31.40300 | 26.96713 | 9867 ft | 181 kts | 18° |
| 2026-04-14 01:24 | -31.39169 | 26.97183 | 9601 ft | 166 kts | 18° |
| 2026-04-14 01:24 | -31.38102 | 26.97626 | 9341 ft | 159 kts | 19° |
| 2026-04-14 01:24 | -31.37108 | 26.98153 | 9138 ft | 153 kts | 27° |
| 2026-04-14 01:25 | -31.36231 | 26.98774 | 9109 ft | 142 kts | 30° |
| 2026-04-14 01:25 | -31.35413 | 26.99363 | 9103 ft | 135 kts | 29° |
| 2026-04-14 01:25 | -31.34622 | 26.99924 | 9097 ft | 136 kts | 28° |
| 2026-04-14 01:25 | -31.33730 | 27.00540 | 9114 ft | 161 kts | 28° |
| 2026-04-14 01:26 | -31.32715 | 27.01249 | 9109 ft | 177 kts | 29° |
| 2026-04-14 01:26 | -31.31639 | 27.02008 | 9104 ft | 187 kts | 29° |
| 2026-04-14 01:26 | -31.30504 | 27.02804 | 9089 ft | 192 kts | 29° |
| 2026-04-14 01:26 | -31.29346 | 27.03613 | 9095 ft | 195 kts | 29° |
| 2026-04-14 01:27 | -31.28177 | 27.04429 | 9095 ft | 196 kts | 30° |
| 2026-04-14 01:27 | -31.27002 | 27.05251 | 9098 ft | 197 kts | 29° |
| 2026-04-14 01:27 | -31.25821 | 27.06079 | 9097 ft | 198 kts | 29° |
| 2026-04-14 01:27 | -31.24635 | 27.06912 | 9093 ft | 198 kts | 29° |
| 2026-04-14 01:28 | -31.23455 | 27.07742 | 9093 ft | 198 kts | 29° |
| 2026-04-14 01:28 | -31.22274 | 27.08573 | 9095 ft | 198 kts | 29° |
| 2026-04-14 01:28 | -31.21111 | 27.09393 | 9094 ft | 198 kts | 30° |
| 2026-04-14 01:28 | -31.19933 | 27.10226 | 9101 ft | 198 kts | 29° |
| 2026-04-14 01:29 | -31.18754 | 27.11058 | 9100 ft | 198 kts | 30° |
| 2026-04-14 01:29 | -31.17571 | 27.11894 | 9102 ft | 198 kts | 29° |
| 2026-04-14 01:29 | -31.16392 | 27.12725 | 9101 ft | 198 kts | 29° |
| 2026-04-14 01:29 | -31.15213 | 27.13558 | 9101 ft | 198 kts | 30° |
| 2026-04-14 01:30 | -31.14035 | 27.14390 | 9104 ft | 198 kts | 30° |
| 2026-04-14 01:30 | -31.12851 | 27.15223 | 9103 ft | 199 kts | 29° |
| 2026-04-14 01:30 | -31.11670 | 27.16056 | 9098 ft | 199 kts | 30° |
| 2026-04-14 01:30 | -31.10490 | 27.16889 | 9095 ft | 197 kts | 30° |
| 2026-04-14 01:31 | -31.09323 | 27.17715 | 9096 ft | 195 kts | 30° |
| 2026-04-14 01:31 | -31.08169 | 27.18533 | 9103 ft | 194 kts | 30° |
| 2026-04-14 01:31 | -31.07021 | 27.19346 | 9104 ft | 193 kts | 30° |
| 2026-04-14 01:31 | -31.05874 | 27.20157 | 9104 ft | 193 kts | 29° |
| 2026-04-14 01:32 | -31.04710 | 27.20979 | 9105 ft | 193 kts | 30° |
| 2026-04-14 01:32 | -31.03566 | 27.21787 | 9098 ft | 192 kts | 30° |
| 2026-04-14 01:32 | -31.02428 | 27.22592 | 9100 ft | 191 kts | 30° |
| 2026-04-14 01:32 | -31.01293 | 27.23396 | 9109 ft | 191 kts | 30° |
| 2026-04-14 01:33 | -31.00153 | 27.24199 | 9110 ft | 192 kts | 30° |
| 2026-04-14 01:33 | -30.99011 | 27.25001 | 9109 ft | 192 kts | 30° |
| 2026-04-14 01:33 | -30.97868 | 27.25803 | 9107 ft | 192 kts | 29° |
| 2026-04-14 01:33 | -30.96722 | 27.26607 | 9111 ft | 192 kts | 30° |
| 2026-04-14 01:34 | -30.95573 | 27.27411 | 9109 ft | 193 kts | 29° |
| 2026-04-14 01:34 | -30.94422 | 27.28219 | 9106 ft | 192 kts | 30° |
| 2026-04-14 01:34 | -30.93278 | 27.29020 | 9111 ft | 192 kts | 29° |
| 2026-04-14 01:34 | -30.92132 | 27.29824 | 9106 ft | 192 kts | 30° |
| 2026-04-14 01:35 | -30.91002 | 27.30619 | 9107 ft | 192 kts | 30° |
| 2026-04-14 01:35 | -30.89862 | 27.31420 | 9110 ft | 192 kts | 30° |
| 2026-04-14 01:35 | -30.88688 | 27.32141 | 9109 ft | 191 kts | 15° |
| 2026-04-14 01:35 | -30.87384 | 27.32061 | 9111 ft | 190 kts | 347° |
| 2026-04-14 01:36 | -30.86106 | 27.31659 | 9102 ft | 189 kts | 342° |
| 2026-04-14 01:36 | -30.84853 | 27.31189 | 9112 ft | 190 kts | 342° |
| 2026-04-14 01:36 | -30.83596 | 27.30707 | 9113 ft | 190 kts | 341° |
| 2026-04-14 01:36 | -30.82336 | 27.30219 | 9113 ft | 191 kts | 341° |
| 2026-04-14 01:37 | -30.81078 | 27.29727 | 9108 ft | 190 kts | 341° |
| 2026-04-14 01:37 | -30.79820 | 27.29231 | 9110 ft | 191 kts | 341° |
| 2026-04-14 01:37 | -30.78560 | 27.28732 | 9111 ft | 191 kts | 341° |
| 2026-04-14 01:37 | -30.77304 | 27.28235 | 9112 ft | 191 kts | 341° |
| 2026-04-14 01:38 | -30.74802 | 27.27248 | 9109 ft | 190 kts | 341° |
| 2026-04-14 01:38 | -30.73546 | 27.26755 | 9113 ft | 191 kts | 341° |
| 2026-04-14 01:38 | -30.72288 | 27.26261 | 9119 ft | 191 kts | 341° |
| 2026-04-14 01:39 | -30.71007 | 27.25758 | 9099 ft | 192 kts | 341° |
| 2026-04-14 01:39 | -30.69764 | 27.25276 | 9110 ft | 191 kts | 341° |
| 2026-04-14 01:39 | -30.68470 | 27.24877 | 9122 ft | 193 kts | 353° |
| 2026-04-14 01:39 | -30.67129 | 27.24796 | 9109 ft | 193 kts | 359° |
| 2026-04-14 01:40 | -30.65789 | 27.24849 | 9114 ft | 193 kts | 2° |
| 2026-04-14 01:40 | -30.64454 | 27.24956 | 9106 ft | 192 kts | 4° |
| 2026-04-14 01:40 | -30.63123 | 27.25083 | 9109 ft | 192 kts | 4° |
| 2026-04-14 01:40 | -30.61794 | 27.25220 | 9102 ft | 191 kts | 4° |
| 2026-04-14 01:41 | -30.60917 | 27.25314 | 9107 ft | 191 kts | 4° |
| 2026-04-14 01:41 | -30.59149 | 27.25511 | 9105 ft | 191 kts | 5° |
| 2026-04-14 01:41 | -30.58270 | 27.25611 | 9105 ft | 191 kts | 5° |
| 2026-04-14 01:41 | -30.56530 | 27.25857 | 9104 ft | 190 kts | 8° |
| 2026-04-14 01:42 | -30.55651 | 27.26038 | 9105 ft | 190 kts | 9° |
| 2026-04-14 01:42 | -30.54373 | 27.26420 | 9105 ft | 190 kts | 15° |
| 2026-04-14 01:42 | -30.52701 | 27.27036 | 9106 ft | 190 kts | 17° |
| 2026-04-14 01:42 | -30.51855 | 27.27365 | 9106 ft | 190 kts | 17° |
| 2026-04-14 01:43 | -30.50606 | 27.27873 | 9113 ft | 190 kts | 19° |
| 2026-04-14 01:43 | -30.49371 | 27.28447 | 9117 ft | 192 kts | 21° |
| 2026-04-14 01:43 | -30.48144 | 27.29046 | 9111 ft | 192 kts | 21° |
| 2026-04-14 01:43 | -30.46922 | 27.29668 | 9109 ft | 192 kts | 24° |
| 2026-04-14 01:44 | -30.45746 | 27.30356 | 9106 ft | 192 kts | 26° |
| 2026-04-14 01:44 | -30.44568 | 27.31082 | 9107 ft | 192 kts | 28° |
| 2026-04-14 01:44 | -30.43424 | 27.31877 | 9110 ft | 192 kts | 30° |
| 2026-04-14 01:44 | -30.42294 | 27.32693 | 9111 ft | 192 kts | 30° |
| 2026-04-14 01:45 | -30.41165 | 27.33517 | 9109 ft | 191 kts | 31° |
| 2026-04-14 01:45 | -30.40043 | 27.34347 | 9109 ft | 191 kts | 31° |
| 2026-04-14 01:45 | -30.38921 | 27.35184 | 9109 ft | 191 kts | 31° |
| 2026-04-14 01:45 | -30.37799 | 27.36019 | 9112 ft | 191 kts | 31° |
| 2026-04-14 01:46 | -30.36682 | 27.36854 | 9114 ft | 191 kts | 31° |
| 2026-04-14 01:46 | -30.35564 | 27.37690 | 9115 ft | 192 kts | 31° |
| 2026-04-14 01:46 | -30.34507 | 27.38629 | 9111 ft | 192 kts | 41° |
| 2026-04-14 01:46 | -30.33604 | 27.39771 | 9110 ft | 193 kts | 47° |
| 2026-04-14 01:47 | -30.32830 | 27.41013 | 9108 ft | 194 kts | 62° |
| 2026-04-14 01:47 | -30.32307 | 27.42452 | 9108 ft | 194 kts | 67° |
| 2026-04-14 01:47 | -30.31966 | 27.43966 | 9109 ft | 195 kts | 77° |
| 2026-04-14 01:47 | -30.31843 | 27.45533 | 9109 ft | 197 kts | 94° |
| 2026-04-14 01:48 | -30.32233 | 27.47062 | 9111 ft | 199 kts | 114° |
| 2026-04-14 01:48 | -30.32946 | 27.48445 | 9121 ft | 201 kts | 121° |
| 2026-04-14 01:48 | -30.33716 | 27.49803 | 9113 ft | 201 kts | 121° |
| 2026-04-14 01:48 | -30.34433 | 27.51199 | 9113 ft | 201 kts | 115° |
| 2026-04-14 01:49 | -30.35015 | 27.52643 | 9113 ft | 200 kts | 110° |
| 2026-04-14 01:49 | -30.35474 | 27.54182 | 9112 ft | 200 kts | 104° |
| 2026-04-14 01:49 | -30.35823 | 27.55718 | 9110 ft | 199 kts | 102° |
| 2026-04-14 01:49 | -30.36136 | 27.57279 | 9110 ft | 199 kts | 100° |
| 2026-04-14 01:50 | -30.36375 | 27.58856 | 9110 ft | 198 kts | 96° |
| 2026-04-14 01:50 | -30.36571 | 27.60436 | 9115 ft | 198 kts | 95° |
| 2026-04-14 01:50 | -30.36636 | 27.62025 | 9116 ft | 197 kts | 86° |
| 2026-04-14 01:50 | -30.36566 | 27.63621 | 9117 ft | 197 kts | 84° |
| 2026-04-14 01:51 | -30.36470 | 27.65199 | 9113 ft | 198 kts | 83° |
| 2026-04-14 01:51 | -30.36359 | 27.66789 | 9110 ft | 198 kts | 83° |
| 2026-04-14 01:51 | -30.36243 | 27.68364 | 9200 ft | 193 kts | 83° |
| 2026-04-14 01:51 | -30.36136 | 27.69870 | 9484 ft | 182 kts | 83° |
| 2026-04-14 01:52 | -30.36036 | 27.71287 | 9757 ft | 176 kts | 82° |
| 2026-04-14 01:52 | -30.35950 | 27.72681 | 10041 ft | 172 kts | 83° |
| 2026-04-14 01:52 | -30.35872 | 27.74057 | 10310 ft | 170 kts | 83° |
| 2026-04-14 01:52 | -30.35797 | 27.75420 | 10575 ft | 169 kts | 83° |
| 2026-04-14 01:53 | -30.35732 | 27.76728 | 10821 ft | 169 kts | 83° |
| 2026-04-14 01:53 | -30.35665 | 27.78108 | 10979 ft | 175 kts | 83° |
| 2026-04-14 01:53 | -30.35336 | 27.79461 | 11044 ft | 177 kts | 51° |
| 2026-04-14 01:53 | -30.34333 | 27.80221 | 11087 ft | 177 kts | 10° |
| 2026-04-14 01:54 | -30.33103 | 27.80080 | 11104 ft | 181 kts | 342° |
| 2026-04-14 01:54 | -30.31932 | 27.79514 | 11108 ft | 184 kts | 335° |
| 2026-04-14 01:54 | -30.30765 | 27.78885 | 11107 ft | 186 kts | 336° |
| 2026-04-14 01:54 | -30.29568 | 27.78305 | 11113 ft | 187 kts | 339° |
| 2026-04-14 01:55 | -30.28342 | 27.77798 | 11108 ft | 187 kts | 342° |
| 2026-04-14 01:55 | -30.27097 | 27.77351 | 11106 ft | 187 kts | 344° |
| 2026-04-14 01:55 | -30.25847 | 27.76951 | 11105 ft | 186 kts | 345° |
| 2026-04-14 01:55 | -30.24594 | 27.76580 | 11115 ft | 186 kts | 346° |
| 2026-04-14 01:56 | -30.23352 | 27.76229 | 11113 ft | 186 kts | 346° |
| 2026-04-14 01:56 | -30.22089 | 27.75880 | 11109 ft | 186 kts | 346° |
| 2026-04-14 01:56 | -30.20830 | 27.75537 | 11101 ft | 185 kts | 347° |
| 2026-04-14 01:56 | -30.19577 | 27.75198 | 11111 ft | 185 kts | 347° |
| 2026-04-14 01:57 | -30.18325 | 27.74861 | 11120 ft | 185 kts | 347° |
| 2026-04-14 01:57 | -30.17071 | 27.74520 | 11111 ft | 184 kts | 347° |
| 2026-04-14 01:57 | -30.15821 | 27.74185 | 11100 ft | 184 kts | 350° |
| 2026-04-14 01:57 | -30.14568 | 27.74345 | 11112 ft | 186 kts | 21° |
| 2026-04-14 01:58 | -30.13401 | 27.74998 | 11124 ft | 186 kts | 21° |
| 2026-04-14 01:58 | -30.12197 | 27.75548 | 11117 ft | 186 kts | 18° |
| 2026-04-14 01:58 | -30.10981 | 27.76083 | 11128 ft | 188 kts | 19° |
| 2026-04-14 01:58 | -30.09763 | 27.76642 | 11125 ft | 189 kts | 19° |
| 2026-04-14 01:59 | -30.08556 | 27.77210 | 11118 ft | 189 kts | 20° |
| 2026-04-14 01:59 | -30.07342 | 27.77789 | 11108 ft | 188 kts | 20° |
| 2026-04-14 01:59 | -30.06133 | 27.78371 | 11114 ft | 188 kts | 20° |
| 2026-04-14 01:59 | -30.04928 | 27.78952 | 11114 ft | 187 kts | 20° |
| 2026-04-14 02:00 | -30.03725 | 27.79533 | 11114 ft | 187 kts | 20° |
| 2026-04-14 02:00 | -30.02524 | 27.80113 | 11107 ft | 186 kts | 20° |
| 2026-04-14 02:00 | -30.01330 | 27.80688 | 11114 ft | 185 kts | 20° |
| 2026-04-14 02:00 | -30.00141 | 27.81263 | 11115 ft | 185 kts | 20° |
| 2026-04-14 02:01 | -29.98950 | 27.81838 | 11122 ft | 186 kts | 20° |
| 2026-04-14 02:01 | -29.97756 | 27.82424 | 11143 ft | 187 kts | 20° |
| 2026-04-14 02:01 | -29.96547 | 27.82998 | 11134 ft | 188 kts | 20° |
| 2026-04-14 02:01 | -29.95338 | 27.83568 | 10946 ft | 180 kts | 19° |
| 2026-04-14 02:02 | -29.94234 | 27.84104 | 10736 ft | 166 kts | 22° |
| 2026-04-14 02:02 | -29.93550 | 27.85116 | 10195 ft | 168 kts | 75° |
| 2026-04-14 02:02 | -29.93556 | 27.86475 | 9237 ft | 178 kts | 94° |
| 2026-04-14 02:02 | -29.93898 | 27.87816 | 8385 ft | 182 kts | 123° |
| 2026-04-14 02:03 | -29.94825 | 27.88717 | 7970 ft | 166 kts | 163° |
| 2026-04-14 02:03 | -29.95606 | 27.88378 | 7727 ft | 113 kts | 247° |
| 2026-04-14 02:03 | -29.95427 | 27.87604 | 7393 ft | 107 kts | 322° |
| 2026-04-14 02:03 | -29.94779 | 27.87294 | 7461 ft | 103 kts | 343° |
| 2026-04-14 02:04 | -29.94054 | 27.87077 | 7554 ft | 106 kts | 351° |
| 2026-04-14 02:04 | -29.93341 | 27.86984 | 7738 ft | 99 kts | 348° |
| 2026-04-14 02:04 | -29.92802 | 27.86647 | 7856 ft | 88 kts | 316° |
| 2026-04-14 02:04 | -29.92487 | 27.86043 | 7820 ft | 89 kts | 283° |
| 2026-04-14 02:05 | -29.92630 | 27.85303 | 7654 ft | 101 kts | 233° |
| 2026-04-14 02:05 | -29.92984 | 27.84703 | 7538 ft | 70 kts | 233° |
| 2026-04-14 02:05 | -29.93081 | 27.84508 | 7536 ft | 2 kts | 197° |
| 2026-04-14 02:05 | -29.93080 | 27.84519 | 7536 ft | 7 kts | 70° |
| 2026-04-14 02:06 | -29.93056 | 27.84568 | 7536 ft | 8 kts | 65° |
| 2026-04-14 02:06 | -29.92998 | 27.84664 | 7538 ft | 34 kts | 54° |
| 2026-04-14 02:06 | -29.92782 | 27.85054 | 7536 ft | 79 kts | 56° |
| 2026-04-14 02:06 | -29.92922 | 27.85804 | 6951 ft | 144 kts | 133° |
| 2026-04-14 02:07 | -29.93701 | 27.86593 | 7113 ft | 144 kts | 139° |
| 2026-04-14 02:07 | -29.94485 | 27.87391 | 7411 ft | 145 kts | 127° |
| 2026-04-14 02:07 | -29.94500 | 27.88339 | 7899 ft | 128 kts | 34° |
| 2026-04-14 02:07 | -29.93701 | 27.88177 | 7970 ft | 149 kts | 317° |
| 2026-04-14 02:08 | -29.92963 | 27.87356 | 8016 ft | 140 kts | 315° |
| 2026-04-14 02:08 | -29.92450 | 27.86673 | 7910 ft | 97 kts | 303° |
| 2026-04-14 02:08 | -29.92360 | 27.85906 | 7752 ft | 100 kts | 258° |
| 2026-04-14 02:08 | -29.92698 | 27.85206 | 7568 ft | 101 kts | 239° |
| 2026-04-14 02:09 | -29.93028 | 27.84583 | 7592 ft | 87 kts | 252° |
| 2026-04-14 02:09 | -29.92848 | 27.83947 | 7755 ft | 99 kts | 343° |
| 2026-04-14 02:09 | -29.92112 | 27.84212 | 7707 ft | 142 kts | 49° |
| 2026-04-14 02:09 | -29.91843 | 27.85291 | 7496 ft | 136 kts | 95° |
| 2026-04-14 02:10 | -29.92333 | 27.85901 | 7540 ft | 95 kts | 199° |
| 2026-04-14 02:10 | -29.92655 | 27.85353 | 7575 ft | 84 kts | 249° |
| 2026-04-14 02:10 | -29.92916 | 27.84816 | 7538 ft | 62 kts | 238° |
| 2026-04-14 02:10 | -29.93013 | 27.84652 | 7537 ft | 8 kts | 222° |
| 2026-04-14 02:11 | -29.93054 | 27.84631 | 7538 ft | 6 kts | 120° |
| 2026-04-14 02:11 | -29.93041 | 27.84645 | 7535 ft | 0 kts | 360° |
| 2026-04-14 02:11 | -29.93042 | 27.84645 | 7535 ft | 0 kts | 360° |
| 2026-04-14 02:12 | -29.93043 | 27.84645 | 7535 ft | 0 kts | 360° |